EmailTwitter


Surface observations / France / LFMK (07635)

Regions: Quebec | Canada | USA | Europe | France | UK | Elsewhere
Station
Display
Info & Location for LFMK (07635) | Help decoding METAR

Weather Conditions observed on 2018/11/14 at 15:30 UTC at CARCASSONNE/SALV, FR (LFMK)

Sky conditions: overcast.

Temperature: 17.0 Celsius.

Dewpoint: 15.0 Celsius.

Relative Humidity: 88%

Humidex: 21.

Winds: East at 26 km/h or 14 knots.

Mean Sea level Pressure: 102.20 kilopascals.

Horizontal visibility: 6.21 statute miles or 9.94 kilometers.

Height of the Ceiling: 366 metres ( 1200 feet ).

Coded METAR:

LFMK 141530Z AUTO 08014KT 9999 BKN012 OVC020 17/15 Q1022 TEMPO 09015G25KT =